createdAt,value
2022-09-17T00:00:38.302Z,79.17
2022-09-17T00:01:34.176Z,79.31
2022-09-17T00:02:29.379Z,78.99
2022-09-17T00:03:25.285Z,78.57
2022-09-17T00:04:20.249Z,79.06
2022-09-17T00:05:15.597Z,79.47
2022-09-17T00:06:11.294Z,78.88
2022-09-17T00:07:06.450Z,78.74
2022-09-17T00:08:01.730Z,78.75
2022-09-17T00:08:58.135Z,78.88
2022-09-17T00:09:53.447Z,78.49
2022-09-17T00:10:49.299Z,78.48
2022-09-17T00:11:44.435Z,78.92
2022-09-17T00:12:39.596Z,79.32
2022-09-17T00:13:35.349Z,79.46
2022-09-17T00:14:30.522Z,78.97
2022-09-17T00:15:25.774Z,78.97
2022-09-17T00:16:21.000Z,78.41
2022-09-17T00:17:16.122Z,78.36
2022-09-17T00:18:11.299Z,78.47
2022-09-17T00:19:06.286Z,78.43
2022-09-17T00:20:01.319Z,78.20
2022-09-17T00:20:56.390Z,78.20
2022-09-17T00:21:51.412Z,77.85
2022-09-17T00:22:51.042Z,77.18
2022-09-17T00:23:46.253Z,77.45
2022-09-17T00:24:41.760Z,77.57
2022-09-17T00:25:37.361Z,77.71
2022-09-17T00:26:32.660Z,77.95
2022-09-17T00:27:27.921Z,78.00
2022-09-17T00:28:24.320Z,77.96
2022-09-17T00:29:19.638Z,77.92
2022-09-17T00:30:15.370Z,77.89
2022-09-17T00:31:10.654Z,77.66
2022-09-17T00:32:05.919Z,77.64
2022-09-17T00:33:01.663Z,77.82
2022-09-17T00:33:56.980Z,77.47
2022-09-17T00:34:52.706Z,77.23
2022-09-17T00:35:47.988Z,77.30
2022-09-17T00:36:43.416Z,77.42
2022-09-17T00:37:39.160Z,77.70
2022-09-17T00:38:34.346Z,77.38
2022-09-17T00:39:29.511Z,77.26
2022-09-17T00:40:25.815Z,77.19
2022-09-17T00:41:20.995Z,77.44
2022-09-17T00:42:16.862Z,77.38
2022-09-17T00:43:12.131Z,77.72
2022-09-17T00:44:07.316Z,77.50
2022-09-17T00:45:03.158Z,77.08
2022-09-17T00:45:58.333Z,77.00
2022-09-17T00:46:54.231Z,77.33
2022-09-17T00:47:49.501Z,77.55
2022-09-17T00:48:44.685Z,77.42
2022-09-17T00:49:40.535Z,77.40
2022-09-17T00:50:35.710Z,77.04
2022-09-17T00:51:30.842Z,76.90
2022-09-17T00:52:27.271Z,77.26
2022-09-17T00:53:22.441Z,77.87
2022-09-17T00:54:18.285Z,77.93
2022-09-17T00:55:13.444Z,77.53
2022-09-17T00:56:08.609Z,76.74
2022-09-17T00:57:04.469Z,76.94
2022-09-17T00:57:59.785Z,77.09
2022-09-17T00:58:55.755Z,76.85
2022-09-17T00:59:50.907Z,76.75
2022-09-17T01:00:46.289Z,76.38
2022-09-17T01:01:42.060Z,76.85
2022-09-17T01:02:37.226Z,77.07
2022-09-17T01:03:32.630Z,76.97
2022-09-17T01:04:28.642Z,76.61
2022-09-17T01:05:23.914Z,76.25
2022-09-17T01:06:19.140Z,76.80
2022-09-17T01:07:14.983Z,77.05
2022-09-17T01:08:10.276Z,76.81
2022-09-17T01:09:06.150Z,76.29
2022-09-17T01:10:01.303Z,76.28
2022-09-17T01:10:56.763Z,76.10
2022-09-17T01:11:52.221Z,76.09
2022-09-17T01:12:47.522Z,76.23
2022-09-17T01:13:42.685Z,76.18
2022-09-17T01:14:39.210Z,76.33
2022-09-17T01:15:34.404Z,76.67
2022-09-17T01:16:30.290Z,76.49
2022-09-17T01:17:25.417Z,76.61
2022-09-17T01:18:20.622Z,77.01
2022-09-17T01:19:16.350Z,76.74
2022-09-17T01:20:11.581Z,76.79
2022-09-17T01:21:06.721Z,76.68
2022-09-17T01:22:01.880Z,76.90
2022-09-17T01:22:57.051Z,77.36
2022-09-17T01:23:52.070Z,77.51
2022-09-17T01:24:47.104Z,77.18
2022-09-17T01:25:42.156Z,76.71
2022-09-17T01:26:37.231Z,76.67
2022-09-17T01:27:32.228Z,77.09
2022-09-17T01:28:27.240Z,76.95
2022-09-17T01:29:22.296Z,77.06
2022-09-17T01:30:17.367Z,76.85
2022-09-17T01:31:12.352Z,76.93
2022-09-17T01:32:07.402Z,77.30
2022-09-17T01:33:02.418Z,78.09
2022-09-17T01:33:57.436Z,77.75
2022-09-17T01:34:52.471Z,77.36
2022-09-17T01:35:47.484Z,77.20
2022-09-17T01:36:42.528Z,77.37
2022-09-17T01:37:37.685Z,77.41
2022-09-17T01:38:33.534Z,77.38
2022-09-17T01:39:28.595Z,77.26
2022-09-17T01:40:23.788Z,77.39
2022-09-17T01:41:18.952Z,77.54
2022-09-17T01:42:14.261Z,77.62
2022-09-17T01:43:09.395Z,77.98
2022-09-17T01:44:05.800Z,77.97
2022-09-17T01:45:01.244Z,77.71
2022-09-17T01:45:56.265Z,77.87
2022-09-17T01:46:51.507Z,77.54
2022-09-17T01:47:46.649Z,77.22
2022-09-17T01:48:42.077Z,77.30
2022-09-17T01:49:37.370Z,77.84
2022-09-17T01:50:32.366Z,77.68
2022-09-17T01:51:27.524Z,77.62
2022-09-17T01:52:22.809Z,77.30
2022-09-17T01:53:18.061Z,77.46
2022-09-17T01:54:13.219Z,77.55
2022-09-17T01:55:08.517Z,77.79
2022-09-17T01:56:03.657Z,77.37
2022-09-17T01:56:58.915Z,77.08
2022-09-17T01:57:54.181Z,77.04
2022-09-17T01:58:49.367Z,77.08
2022-09-17T01:59:44.632Z,77.16
2022-09-17T02:00:39.946Z,77.31
2022-09-17T02:01:35.056Z,77.57
2022-09-17T02:02:30.243Z,77.77
2022-09-17T02:03:25.385Z,78.39
2022-09-17T02:04:20.662Z,77.47
2022-09-17T02:05:16.136Z,77.45
2022-09-17T02:06:11.242Z,78.14
2022-09-17T02:07:06.357Z,77.93
2022-09-17T02:08:01.512Z,77.78
2022-09-17T02:08:56.945Z,77.90
2022-09-17T02:09:51.942Z,77.93
2022-09-17T02:10:46.986Z,77.22
2022-09-17T02:11:42.016Z,77.21
2022-09-17T02:12:37.151Z,77.41
2022-09-17T02:13:32.360Z,77.39
2022-09-17T02:14:27.227Z,77.15
2022-09-17T02:15:22.261Z,77.55
2022-09-17T02:16:17.295Z,77.44
2022-09-17T02:17:12.294Z,77.87
2022-09-17T02:18:07.315Z,77.32
2022-09-17T02:19:02.783Z,76.56
2022-09-17T02:19:57.391Z,76.43
2022-09-17T02:20:52.517Z,76.36
2022-09-17T02:21:47.679Z,76.57
2022-09-17T02:22:42.702Z,76.64
2022-09-17T02:23:37.846Z,76.92
2022-09-17T02:24:32.998Z,77.01
2022-09-17T02:25:27.996Z,77.29
2022-09-17T02:26:23.127Z,77.48
2022-09-17T02:27:18.852Z,77.69
2022-09-17T02:28:14.138Z,78.03
2022-09-17T02:29:09.270Z,78.18
2022-09-17T02:30:04.426Z,78.10
2022-09-17T02:30:59.788Z,78.19
2022-09-17T02:31:55.086Z,78.46
2022-09-17T02:32:50.104Z,78.87
2022-09-17T02:33:45.373Z,78.89
2022-09-17T02:34:40.570Z,78.99
2022-09-17T02:35:36.548Z,78.41
2022-09-17T02:36:31.725Z,78.00
2022-09-17T02:37:27.586Z,77.74
2022-09-17T02:38:22.875Z,77.36
2022-09-17T02:39:18.163Z,77.68
2022-09-17T02:40:13.956Z,77.61
2022-09-17T02:41:09.120Z,77.26
2022-09-17T02:42:04.276Z,76.94
2022-09-17T02:43:00.784Z,76.86
2022-09-17T02:43:55.991Z,76.54
2022-09-17T02:44:51.719Z,76.14
2022-09-17T02:45:46.978Z,75.91
2022-09-17T02:46:42.254Z,76.23
2022-09-17T02:47:37.992Z,76.07
2022-09-17T02:48:33.391Z,76.08
2022-09-17T02:49:28.982Z,76.26
2022-09-17T02:50:24.124Z,76.08
2022-09-17T02:51:19.446Z,76.13
2022-09-17T02:52:15.298Z,76.36
2022-09-17T02:53:10.486Z,76.70
2022-09-17T02:54:05.768Z,76.96
2022-09-17T02:55:02.153Z,77.02
2022-09-17T02:55:57.449Z,77.11
2022-09-17T02:56:53.287Z,77.25
2022-09-17T02:57:48.434Z,77.03
2022-09-17T02:58:43.599Z,76.96
2022-09-17T02:59:39.494Z,77.35
2022-09-17T03:00:34.668Z,77.30
2022-09-17T03:01:30.630Z,77.23
2022-09-17T03:02:25.797Z,76.92
2022-09-17T03:03:21.086Z,76.60
2022-09-17T03:04:16.984Z,76.66
2022-09-17T03:05:12.141Z,76.99
2022-09-17T03:06:07.418Z,76.84
2022-09-17T03:07:03.819Z,76.33
2022-09-17T03:07:59.130Z,76.34
2022-09-17T03:08:54.989Z,76.39
2022-09-17T03:09:50.281Z,76.65
2022-09-17T03:10:45.577Z,76.45
2022-09-17T03:11:41.341Z,76.26
2022-09-17T03:12:36.510Z,76.46
2022-09-17T03:13:32.378Z,76.47
2022-09-17T03:14:27.533Z,76.64
2022-09-17T03:15:22.836Z,76.98
2022-09-17T03:16:18.631Z,77.15
2022-09-17T03:17:13.807Z,77.26
2022-09-17T03:18:08.972Z,77.45
2022-09-17T03:19:05.508Z,77.68
2022-09-17T03:20:00.707Z,77.67
2022-09-17T03:20:56.570Z,77.81
2022-09-17T03:21:51.701Z,77.94
2022-09-17T03:22:46.906Z,78.16
2022-09-17T03:23:42.606Z,78.39
2022-09-17T03:24:37.947Z,78.56
2022-09-17T03:25:33.627Z,77.95
2022-09-17T03:26:28.919Z,77.54
2022-09-17T03:27:24.094Z,77.08
2022-09-17T03:28:19.961Z,77.39
2022-09-17T03:29:15.154Z,77.02
2022-09-17T03:30:10.298Z,77.31
2022-09-17T03:31:06.787Z,77.03
2022-09-17T03:32:01.985Z,76.93
2022-09-17T03:32:57.831Z,76.96
2022-09-17T03:33:53.012Z,77.27
2022-09-17T03:34:48.156Z,76.86
2022-09-17T03:35:43.315Z,76.65
2022-09-17T03:36:38.622Z,76.42
2022-09-17T03:37:34.481Z,76.58
2022-09-17T03:38:29.698Z,76.84
2022-09-17T03:39:24.822Z,77.01
2022-09-17T03:40:21.313Z,77.31
2022-09-17T03:41:16.525Z,76.99
2022-09-17T03:42:12.380Z,77.13
2022-09-17T03:43:07.540Z,76.99
2022-09-17T03:44:02.859Z,77.22
2022-09-17T03:44:58.504Z,77.40
2022-09-17T03:45:53.807Z,77.35
2022-09-17T03:46:49.831Z,77.25
2022-09-17T03:47:44.857Z,77.15
2022-09-17T03:48:40.318Z,77.05
2022-09-17T03:49:36.058Z,77.03
2022-09-17T03:50:31.336Z,76.83
2022-09-17T03:51:26.731Z,76.84
2022-09-17T03:52:21.858Z,77.18
2022-09-17T03:53:16.983Z,77.07
2022-09-17T03:54:12.034Z,77.32
2022-09-17T03:55:07.060Z,77.36
2022-09-17T03:56:05.603Z,77.70
2022-09-17T03:57:00.773Z,78.17
2022-09-17T03:57:56.062Z,78.13
2022-09-17T03:58:51.280Z,77.66
2022-09-17T03:59:46.300Z,77.39
2022-09-17T04:00:41.303Z,77.29
2022-09-17T04:01:36.429Z,77.63
2022-09-17T04:02:31.425Z,77.36
2022-09-17T04:03:26.429Z,77.99
2022-09-17T04:04:21.588Z,77.87
2022-09-17T04:05:16.639Z,77.63
2022-09-17T04:06:11.685Z,77.65
2022-09-17T04:07:06.791Z,77.69
2022-09-17T04:08:01.850Z,77.44
2022-09-17T04:08:57.018Z,77.31
2022-09-17T04:09:51.891Z,77.37
2022-09-17T04:10:46.956Z,77.46
2022-09-17T04:11:41.944Z,77.83
2022-09-17T04:12:37.010Z,77.83
2022-09-17T04:13:32.033Z,78.22
2022-09-17T04:14:27.051Z,78.30
2022-09-17T04:15:22.095Z,78.52
2022-09-17T04:16:17.173Z,79.11
2022-09-17T04:17:12.124Z,79.38
2022-09-17T04:18:07.139Z,79.38
2022-09-17T04:19:02.153Z,79.01
2022-09-17T04:19:57.235Z,79.00
2022-09-17T04:20:52.235Z,78.77
2022-09-17T04:21:47.244Z,78.94
2022-09-17T04:22:42.285Z,78.93
2022-09-17T04:23:37.314Z,78.80
2022-09-17T04:24:32.576Z,78.75
2022-09-17T04:25:27.732Z,78.66
2022-09-17T04:26:23.030Z,78.78
2022-09-17T04:27:18.172Z,79.22
2022-09-17T04:28:13.459Z,79.16
2022-09-17T04:29:08.586Z,78.97
2022-09-17T04:30:03.771Z,78.61
2022-09-17T04:30:59.090Z,78.68
2022-09-17T04:31:54.389Z,78.66
2022-09-17T04:32:49.466Z,78.64
2022-09-17T04:33:44.613Z,78.79
2022-09-17T04:34:39.789Z,78.79
2022-09-17T04:35:34.925Z,78.74
2022-09-17T04:36:30.352Z,78.82
2022-09-17T04:37:25.359Z,78.97
2022-09-17T04:38:20.638Z,79.14
2022-09-17T04:39:15.722Z,79.42
2022-09-17T04:40:11.242Z,79.75
2022-09-17T04:41:06.296Z,79.85
2022-09-17T04:42:01.529Z,79.89
2022-09-17T04:42:56.748Z,80.04
2022-09-17T04:43:51.977Z,80.14
2022-09-17T04:44:47.222Z,80.40
2022-09-17T04:45:42.479Z,80.32
2022-09-17T04:46:37.724Z,80.16
2022-09-17T04:47:32.867Z,79.86
2022-09-17T04:48:28.204Z,79.64
2022-09-17T04:49:23.257Z,79.57
2022-09-17T04:50:18.380Z,79.75
2022-09-17T04:51:13.512Z,79.87
2022-09-17T04:52:08.795Z,79.96
2022-09-17T04:53:04.336Z,80.10
2022-09-17T04:53:59.324Z,80.28
2022-09-17T04:54:54.573Z,80.43
2022-09-17T04:55:49.733Z,80.49
2022-09-17T04:56:45.029Z,80.64
2022-09-17T04:57:40.231Z,80.78
2022-09-17T04:58:38.012Z,81.01
2022-09-17T04:59:33.082Z,81.08
2022-09-17T05:00:28.270Z,80.75
2022-09-17T05:01:23.511Z,80.66
2022-09-17T05:02:18.921Z,80.57
2022-09-17T05:03:14.151Z,80.47
2022-09-17T05:04:09.144Z,80.33
2022-09-17T05:05:04.246Z,80.01
2022-09-17T05:05:59.309Z,79.80
2022-09-17T05:06:54.418Z,79.73
2022-09-17T05:07:49.538Z,79.93
2022-09-17T05:08:44.534Z,79.92
2022-09-17T05:09:39.618Z,79.82
2022-09-17T05:10:34.611Z,79.90
2022-09-17T05:11:29.854Z,79.90
2022-09-17T05:12:24.964Z,80.14
2022-09-17T05:13:20.121Z,80.32
2022-09-17T05:14:15.087Z,80.40
2022-09-17T05:15:11.565Z,80.39
2022-09-17T05:16:06.672Z,79.97
2022-09-17T05:17:01.613Z,79.47
2022-09-17T05:17:56.876Z,79.04
2022-09-17T05:18:51.916Z,79.13
2022-09-17T05:19:46.933Z,79.22
2022-09-17T05:20:41.997Z,79.39
2022-09-17T05:21:37.012Z,79.47
2022-09-17T05:22:32.129Z,79.59
2022-09-17T05:23:27.316Z,79.50
2022-09-17T05:24:22.288Z,79.67
2022-09-17T05:25:17.469Z,79.71
2022-09-17T05:26:12.503Z,79.90
2022-09-17T05:27:07.539Z,79.91
2022-09-17T05:28:02.586Z,79.88
2022-09-17T05:28:57.822Z,80.30
2022-09-17T05:29:52.609Z,80.21
2022-09-17T05:30:47.703Z,79.68
2022-09-17T05:31:42.856Z,79.52
2022-09-17T05:32:37.824Z,79.69
2022-09-17T05:33:32.957Z,79.72
2022-09-17T05:34:28.045Z,79.68
2022-09-17T05:35:23.067Z,79.85
2022-09-17T05:36:18.125Z,80.01
2022-09-17T05:37:13.136Z,80.05
2022-09-17T05:38:08.303Z,80.04
2022-09-17T05:39:03.505Z,80.11
2022-09-17T05:39:58.868Z,80.34
2022-09-17T05:40:54.167Z,80.25
2022-09-17T05:41:49.315Z,80.31
2022-09-17T05:42:44.601Z,80.27
2022-09-17T05:43:39.786Z,80.45
2022-09-17T05:44:34.829Z,80.12
2022-09-17T05:45:29.889Z,80.01
2022-09-17T05:46:24.912Z,80.07
2022-09-17T05:47:19.950Z,80.19
2022-09-17T05:48:15.001Z,80.26
2022-09-17T05:49:10.061Z,80.27
2022-09-17T05:50:05.131Z,80.21
2022-09-17T05:51:00.370Z,80.26
2022-09-17T05:51:55.505Z,80.30
2022-09-17T05:52:50.603Z,80.51
2022-09-17T05:53:45.691Z,80.51
2022-09-17T05:54:40.739Z,80.59
2022-09-17T05:55:35.835Z,80.50
2022-09-17T05:56:30.862Z,80.27
2022-09-17T05:57:26.101Z,80.33
2022-09-17T05:58:21.118Z,80.79
2022-09-17T05:59:16.199Z,80.75
2022-09-17T06:00:11.252Z,80.74
2022-09-17T06:01:07.086Z,80.74
2022-09-17T06:03:29.942Z,81.49
2022-09-17T06:04:25.109Z,81.60
2022-09-17T06:05:20.431Z,81.27
2022-09-17T06:06:15.758Z,81.24
2022-09-17T06:07:11.287Z,81.23
2022-09-17T06:08:06.551Z,80.94
2022-09-17T06:09:01.960Z,80.89
2022-09-17T06:09:57.298Z,80.83
2022-09-17T06:10:52.671Z,80.66
2022-09-17T06:11:48.055Z,80.92
2022-09-17T06:12:43.449Z,80.85
2022-09-17T06:13:38.952Z,80.71
2022-09-17T06:14:34.268Z,80.88
2022-09-17T06:15:29.704Z,80.93
2022-09-17T06:16:25.227Z,81.24
2022-09-17T06:17:22.286Z,81.59
2022-09-17T06:18:16.000Z,81.52
2022-09-17T06:19:11.474Z,81.58
2022-09-17T06:20:07.014Z,81.60
2022-09-17T06:21:02.418Z,81.49
2022-09-17T06:21:57.855Z,81.22
2022-09-17T06:22:53.406Z,81.40
2022-09-17T06:23:48.793Z,81.35
2022-09-17T06:24:44.243Z,81.65
2022-09-17T06:25:39.651Z,81.30
2022-09-17T06:26:35.091Z,81.27
2022-09-17T06:27:30.651Z,81.44
2022-09-17T06:28:26.080Z,81.53
2022-09-17T06:29:21.490Z,81.22
2022-09-17T06:30:16.922Z,81.40
2022-09-17T06:31:12.481Z,81.20
2022-09-17T06:32:07.968Z,81.03
2022-09-17T06:33:03.400Z,80.83
2022-09-17T06:33:58.816Z,80.71
2022-09-17T06:34:54.362Z,80.70
2022-09-17T06:35:49.702Z,80.77
2022-09-17T06:36:45.107Z,80.76
2022-09-17T06:37:40.578Z,80.66
2022-09-17T06:38:35.979Z,80.44
2022-09-17T06:39:31.493Z,80.24
2022-09-17T06:40:26.928Z,80.26
2022-09-17T06:41:22.246Z,80.08
2022-09-17T06:42:17.645Z,80.05
2022-09-17T06:43:13.233Z,80.02
2022-09-17T06:44:08.663Z,80.18
2022-09-17T06:45:08.545Z,80.19
2022-09-17T06:46:00.677Z,79.99
2022-09-17T06:46:55.259Z,79.36
2022-09-17T06:47:50.653Z,79.34
2022-09-17T06:48:45.923Z,78.15
2022-09-17T06:49:41.533Z,77.94
2022-09-17T06:50:41.962Z,77.92
2022-09-17T06:51:33.402Z,78.01
2022-09-17T06:52:27.870Z,76.71
2022-09-17T06:53:23.404Z,76.50
2022-09-17T06:54:18.851Z,76.07
2022-09-17T06:55:14.288Z,76.88
2022-09-17T06:56:09.836Z,76.05
2022-09-17T06:57:05.132Z,76.36
2022-09-17T06:58:00.553Z,76.33
2022-09-17T06:58:56.016Z,76.95
2022-09-17T06:59:51.459Z,77.29
2022-09-17T07:00:46.946Z,76.86
2022-09-17T07:01:42.408Z,76.57
2022-09-17T07:02:37.829Z,76.65
2022-09-17T07:03:33.260Z,76.66
2022-09-17T07:04:28.680Z,76.91
2022-09-17T07:05:24.115Z,77.29
2022-09-17T07:06:19.508Z,77.58
2022-09-17T07:07:14.940Z,77.94
2022-09-17T07:08:10.356Z,77.86
2022-09-17T07:09:10.403Z,77.44
2022-09-17T07:10:02.248Z,77.85
2022-09-17T07:10:56.727Z,77.92
2022-09-17T07:11:52.412Z,78.49
2022-09-17T07:12:49.914Z,78.61
2022-09-17T07:13:43.242Z,78.53
2022-09-17T07:14:38.713Z,78.11
2022-09-17T07:15:34.270Z,77.69
2022-09-17T07:16:29.597Z,77.76
2022-09-17T07:17:24.901Z,77.44
2022-09-17T07:18:20.306Z,77.44
2022-09-17T07:19:15.730Z,77.27
2022-09-17T07:20:11.351Z,77.64
2022-09-17T07:21:06.634Z,77.40
2022-09-17T07:22:02.180Z,77.17
2022-09-17T07:22:57.642Z,76.35
2022-09-17T07:23:53.176Z,76.06
2022-09-17T07:24:48.576Z,75.78
2022-09-17T07:25:43.996Z,75.89
2022-09-17T07:26:39.249Z,75.33
2022-09-17T07:27:34.673Z,75.21
2022-09-17T07:28:30.186Z,74.83
2022-09-17T07:29:25.773Z,74.81
2022-09-17T07:30:21.268Z,75.09
2022-09-17T07:31:17.056Z,74.56
2022-09-17T07:32:11.853Z,74.88
2022-09-17T07:33:06.884Z,74.82
2022-09-17T07:34:01.899Z,74.66
2022-09-17T07:34:56.997Z,74.53
2022-09-17T07:35:52.086Z,74.47
2022-09-17T07:36:47.151Z,74.35
2022-09-17T07:37:42.177Z,73.98
2022-09-17T07:38:37.178Z,74.48
2022-09-17T07:39:32.293Z,74.75
2022-09-17T07:40:27.389Z,75.09
2022-09-17T07:41:22.339Z,74.55
2022-09-17T07:42:17.372Z,74.24
2022-09-17T07:43:12.416Z,74.37
2022-09-17T07:44:07.428Z,74.55
2022-09-17T07:45:02.578Z,74.34
2022-09-17T07:46:01.095Z,74.42
2022-09-17T07:46:56.110Z,74.63
2022-09-17T07:47:51.192Z,74.54
2022-09-17T07:48:46.189Z,74.66
2022-09-17T07:49:42.161Z,74.56
2022-09-17T07:50:37.733Z,74.75
2022-09-17T07:51:33.028Z,74.53
2022-09-17T07:52:28.420Z,74.60
2022-09-17T07:53:23.981Z,74.78
2022-09-17T07:54:19.391Z,74.49
2022-09-17T07:55:14.948Z,74.61
2022-09-17T07:56:12.013Z,73.83
2022-09-17T07:57:05.728Z,73.79
2022-09-17T07:58:01.195Z,73.46
2022-09-17T07:58:56.629Z,73.65
2022-09-17T07:59:52.042Z,73.84
2022-09-17T08:00:47.486Z,74.33
2022-09-17T08:01:43.045Z,74.42
2022-09-17T08:02:38.021Z,74.34
2022-09-17T08:03:32.994Z,74.01
2022-09-17T08:04:28.135Z,73.75
2022-09-17T08:05:23.156Z,73.94
2022-09-17T08:06:18.203Z,74.04
2022-09-17T08:07:13.202Z,73.87
2022-09-17T08:08:08.262Z,74.16
2022-09-17T08:09:05.293Z,73.95
2022-09-17T08:10:00.291Z,73.96
2022-09-17T08:10:55.336Z,74.39
2022-09-17T08:11:57.535Z,74.02
2022-09-17T08:12:47.602Z,74.04
2022-09-17T08:13:42.125Z,74.15
2022-09-17T08:14:37.549Z,74.38
2022-09-17T08:15:32.980Z,73.94
2022-09-17T08:16:28.616Z,73.85
2022-09-17T08:17:24.168Z,74.00
2022-09-17T08:18:19.434Z,74.05
2022-09-17T08:19:14.866Z,73.73
2022-09-17T08:20:10.306Z,73.86
2022-09-17T08:21:05.909Z,73.89
2022-09-17T08:22:01.269Z,73.85
2022-09-17T08:22:56.749Z,73.55
2022-09-17T08:23:52.245Z,73.71
2022-09-17T08:24:47.816Z,73.51
2022-09-17T08:25:42.866Z,72.98
2022-09-17T08:26:37.918Z,71.64
2022-09-17T08:27:32.955Z,71.42
2022-09-17T08:28:28.165Z,71.58
2022-09-17T08:29:23.253Z,71.34
2022-09-17T08:30:18.357Z,71.31
2022-09-17T08:31:13.445Z,71.81
2022-09-17T08:32:10.477Z,71.54
2022-09-17T08:33:05.723Z,71.67
2022-09-17T08:34:00.728Z,70.67
2022-09-17T08:34:58.217Z,70.29
2022-09-17T08:35:50.881Z,69.34
2022-09-17T08:36:45.891Z,69.01
2022-09-17T08:37:40.971Z,68.63
2022-09-17T08:38:38.220Z,68.34
2022-09-17T08:39:31.331Z,68.14
2022-09-17T08:40:26.949Z,67.91
2022-09-17T08:41:22.382Z,67.50
2022-09-17T08:42:17.793Z,67.73
2022-09-17T08:43:13.199Z,67.83
2022-09-17T08:44:08.750Z,67.89
2022-09-17T08:45:04.261Z,68.68
2022-09-17T08:45:59.748Z,68.41
2022-09-17T08:46:55.293Z,68.77
2022-09-17T08:47:50.778Z,69.02
2022-09-17T08:48:46.101Z,68.78
2022-09-17T08:49:41.738Z,69.44
2022-09-17T08:50:37.070Z,69.48
2022-09-17T08:51:32.706Z,70.14
2022-09-17T08:52:28.051Z,71.43
2022-09-17T08:53:23.596Z,72.17
2022-09-17T08:54:18.921Z,72.56
2022-09-17T08:55:18.350Z,72.88
2022-09-17T08:56:13.806Z,73.81
2022-09-17T08:57:09.296Z,74.59
2022-09-17T08:58:04.936Z,74.85
2022-09-17T08:59:00.455Z,75.25
2022-09-17T08:59:55.978Z,75.40
2022-09-17T09:00:51.459Z,74.77
2022-09-17T09:01:47.039Z,75.28
2022-09-17T09:02:42.416Z,75.97
2022-09-17T09:03:37.683Z,76.21
2022-09-17T09:04:33.063Z,75.54
2022-09-17T09:05:28.699Z,75.56
2022-09-17T09:06:24.082Z,76.48
2022-09-17T09:07:19.478Z,76.45
2022-09-17T09:08:15.004Z,76.36
2022-09-17T09:09:10.111Z,76.23
2022-09-17T09:10:05.250Z,75.46
2022-09-17T09:11:00.403Z,74.07
2022-09-17T09:11:55.513Z,73.50
2022-09-17T09:12:50.651Z,73.54
2022-09-17T09:13:45.635Z,74.48
2022-09-17T09:14:40.779Z,73.85
2022-09-17T09:15:35.740Z,74.57
2022-09-17T09:16:30.941Z,75.34
2022-09-17T09:17:26.011Z,74.84
2022-09-17T09:18:24.252Z,74.57
2022-09-17T09:19:19.490Z,74.79
2022-09-17T09:20:14.969Z,74.89
2022-09-17T09:21:10.489Z,75.86
2022-09-17T09:22:05.956Z,75.72
2022-09-17T09:23:01.416Z,76.43
2022-09-17T09:23:56.796Z,76.69
2022-09-17T09:24:52.394Z,76.62
2022-09-17T09:25:48.005Z,76.96
2022-09-17T09:26:43.305Z,77.20
2022-09-17T09:27:38.737Z,77.51
2022-09-17T09:28:34.173Z,78.33
2022-09-17T09:29:29.810Z,78.70
2022-09-17T09:30:25.287Z,78.92
2022-09-17T09:31:20.882Z,78.91
2022-09-17T09:32:16.828Z,78.11
2022-09-17T09:33:10.834Z,78.54
2022-09-17T09:34:05.966Z,78.19
2022-09-17T09:35:00.963Z,78.37
2022-09-17T09:35:56.032Z,77.55
2022-09-17T09:36:51.143Z,77.63
2022-09-17T09:37:46.200Z,77.78
2022-09-17T09:38:41.262Z,78.02
2022-09-17T09:39:41.248Z,78.09
2022-09-17T09:40:32.452Z,77.71
2022-09-17T09:41:28.486Z,77.65
2022-09-17T09:42:23.552Z,77.16
2022-09-17T09:43:18.630Z,76.68
2022-09-17T09:44:13.845Z,77.34
2022-09-17T09:45:08.976Z,77.11
2022-09-17T09:46:04.455Z,77.97
2022-09-17T09:47:00.085Z,78.51
2022-09-17T09:47:55.491Z,78.29
2022-09-17T09:48:50.990Z,78.50
2022-09-17T09:49:46.451Z,77.97
2022-09-17T09:51:04.547Z,77.54
2022-09-17T09:51:38.529Z,77.27
2022-09-17T09:52:32.938Z,77.46
2022-09-17T09:53:28.426Z,77.11
2022-09-17T09:54:24.033Z,77.23
2022-09-17T09:55:21.353Z,77.95
2022-09-17T09:56:15.838Z,77.83
2022-09-17T09:57:10.348Z,78.03
2022-09-17T09:58:05.353Z,78.19
2022-09-17T09:59:00.427Z,78.27
2022-09-17T09:59:55.406Z,78.50
2022-09-17T10:00:50.425Z,78.51
2022-09-17T10:01:45.611Z,78.89
2022-09-17T10:02:40.576Z,79.14
2022-09-17T10:03:35.650Z,78.91
2022-09-17T10:04:32.710Z,79.02
2022-09-17T10:05:27.725Z,79.41
2022-09-17T10:06:22.785Z,79.28
2022-09-17T10:07:17.873Z,78.97
2022-09-17T10:08:12.912Z,79.47
2022-09-17T10:09:08.008Z,79.65
2022-09-17T10:10:03.133Z,79.52
2022-09-17T10:10:58.255Z,77.94
2022-09-17T10:11:54.066Z,76.95
2022-09-17T10:12:49.569Z,76.41
2022-09-17T10:13:45.034Z,75.73
2022-09-17T10:14:40.532Z,75.87
2022-09-17T10:15:35.880Z,75.89
2022-09-17T10:16:31.004Z,75.85
2022-09-17T10:17:26.046Z,76.33
2022-09-17T10:18:21.070Z,76.43
2022-09-17T10:19:16.098Z,76.07
2022-09-17T10:20:11.354Z,75.54
2022-09-17T10:21:06.280Z,75.45
2022-09-17T10:22:01.303Z,75.46
2022-09-17T10:22:56.345Z,76.05
2022-09-17T10:23:51.351Z,75.69
2022-09-17T10:24:46.386Z,75.92
2022-09-17T10:25:41.428Z,75.76
2022-09-17T10:26:36.851Z,75.93
2022-09-17T10:27:32.235Z,75.84
2022-09-17T10:28:27.545Z,75.24
2022-09-17T10:29:23.039Z,74.93
2022-09-17T10:30:18.595Z,74.78
2022-09-17T10:31:13.689Z,75.16
2022-09-17T10:32:08.707Z,74.79
2022-09-17T10:33:03.695Z,73.62
2022-09-17T10:33:58.824Z,73.16
2022-09-17T10:34:53.834Z,72.28
2022-09-17T10:35:48.933Z,71.94
2022-09-17T10:36:44.045Z,71.83
2022-09-17T10:37:39.297Z,72.24
2022-09-17T10:38:34.142Z,71.32
2022-09-17T10:39:29.169Z,70.99
2022-09-17T10:40:24.387Z,69.91
2022-09-17T10:41:19.370Z,70.03
2022-09-17T10:42:14.365Z,70.18
2022-09-17T10:43:09.481Z,69.49
2022-09-17T10:44:06.654Z,69.40
2022-09-17T10:45:02.225Z,68.72
2022-09-17T10:45:57.597Z,67.30
2022-09-17T10:46:53.114Z,66.30
2022-09-17T10:47:48.421Z,66.77
2022-09-17T10:48:43.830Z,67.01
2022-09-17T10:49:39.393Z,66.14
2022-09-17T10:50:34.800Z,65.60
2022-09-17T10:51:30.172Z,65.58
2022-09-17T10:52:25.840Z,65.15
2022-09-17T10:53:21.226Z,66.10
2022-09-17T10:54:16.954Z,65.84
2022-09-17T10:55:12.266Z,64.49
2022-09-17T10:56:07.779Z,64.64
2022-09-17T10:57:03.317Z,64.13
2022-09-17T10:57:58.316Z,64.55
2022-09-17T10:58:53.433Z,65.29
2022-09-17T10:59:48.438Z,64.66
2022-09-17T11:00:43.722Z,63.94
2022-09-17T11:01:38.828Z,64.18
2022-09-17T11:02:33.801Z,65.20
2022-09-17T11:03:28.699Z,66.60
2022-09-17T11:04:23.740Z,66.43
2022-09-17T11:05:18.777Z,66.09
2022-09-17T11:06:14.725Z,66.56
2022-09-17T11:07:10.354Z,66.53
2022-09-17T11:08:05.401Z,67.46
2022-09-17T11:09:00.437Z,67.95
2022-09-17T11:09:55.551Z,69.61
2022-09-17T11:10:51.602Z,69.63
2022-09-17T11:11:47.084Z,70.00
2022-09-17T11:12:42.572Z,70.97
2022-09-17T11:13:38.052Z,71.14
2022-09-17T11:14:33.670Z,71.50
2022-09-17T11:15:29.150Z,71.77
2022-09-17T11:16:24.554Z,72.06
2022-09-17T11:17:20.024Z,72.18
2022-09-17T11:18:15.433Z,72.33
2022-09-17T11:19:10.900Z,71.62
2022-09-17T11:20:06.379Z,72.28
2022-09-17T11:21:01.871Z,72.48
2022-09-17T11:21:59.420Z,72.65
2022-09-17T11:22:54.709Z,74.01
2022-09-17T11:23:49.844Z,73.73
2022-09-17T11:24:44.842Z,73.55
2022-09-17T11:25:39.842Z,72.33
2022-09-17T11:26:34.875Z,72.05
2022-09-17T11:27:29.852Z,73.01
2022-09-17T11:28:24.848Z,72.39
2022-09-17T11:29:19.922Z,72.33
2022-09-17T11:30:15.788Z,71.94
2022-09-17T11:31:10.982Z,73.06
2022-09-17T11:32:05.846Z,73.73
2022-09-17T11:33:00.868Z,74.24
2022-09-17T11:33:55.998Z,74.53
2022-09-17T11:34:51.013Z,74.91
2022-09-17T11:35:46.060Z,74.95
2022-09-17T11:36:41.127Z,74.88
2022-09-17T11:37:36.166Z,75.77
2022-09-17T11:38:31.244Z,76.16
2022-09-17T11:39:26.344Z,76.37
2022-09-17T11:40:21.392Z,76.33
2022-09-17T11:41:16.442Z,77.03
2022-09-17T11:42:11.875Z,76.94
2022-09-17T11:43:07.362Z,77.21
2022-09-17T11:44:02.884Z,77.07
2022-09-17T11:44:58.304Z,77.56
2022-09-17T11:45:53.837Z,77.99
2022-09-17T11:46:49.621Z,78.28
2022-09-17T11:47:44.727Z,78.46
2022-09-17T11:48:40.250Z,77.10
2022-09-17T11:49:35.698Z,77.15
2022-09-17T11:50:31.258Z,76.20
2022-09-17T11:51:26.803Z,75.18
2022-09-17T11:52:22.239Z,74.52
2022-09-17T11:53:21.020Z,73.87
2022-09-17T11:54:16.438Z,73.85